sensor_id;sensor_type;location;lat;lon;timestamp;temperature;humidity
20400;DHT22;10359;53.596;22.520;2022-11-04T00:00:21;1.70;1.00
20400;DHT22;10359;53.596;22.520;2022-11-04T00:03:16;1.80;1.00
20400;DHT22;10359;53.596;22.520;2022-11-04T00:06:06;1.80;1.00
20400;DHT22;10359;53.596;22.520;2022-11-04T00:08:58;1.90;1.00
20400;DHT22;10359;53.596;22.520;2022-11-04T00:11:47;1.90;1.00
20400;DHT22;10359;53.596;22.520;2022-11-04T00:14:54;2.00;1.00
20400;DHT22;10359;53.596;22.520;2022-11-04T00:18:03;2.00;1.00
20400;DHT22;10359;53.596;22.520;2022-11-04T00:20:51;2.20;1.00
20400;DHT22;10359;53.596;22.520;2022-11-04T00:24:00;2.20;1.00
20400;DHT22;10359;53.596;22.520;2022-11-04T00:27:07;2.20;1.00
20400;DHT22;10359;53.596;22.520;2022-11-04T00:30:14;2.30;1.00
20400;DHT22;10359;53.596;22.520;2022-11-04T00:33:03;2.30;1.00
20400;DHT22;10359;53.596;22.520;2022-11-04T00:36:10;2.30;1.00
20400;DHT22;10359;53.596;22.520;2022-11-04T00:39:01;2.30;1.00
20400;DHT22;10359;53.596;22.520;2022-11-04T00:41:50;2.30;1.00
20400;DHT22;10359;53.596;22.520;2022-11-04T00:44:39;2.20;1.00
20400;DHT22;10359;53.596;22.520;2022-11-04T00:47:29;2.20;1.00
20400;DHT22;10359;53.596;22.520;2022-11-04T00:50:19;2.20;1.00
20400;DHT22;10359;53.596;22.520;2022-11-04T00:53:08;2.10;1.00
20400;DHT22;10359;53.596;22.520;2022-11-04T00:56:00;2.10;1.00
20400;DHT22;10359;53.596;22.520;2022-11-04T00:58:49;2.00;1.00
20400;DHT22;10359;53.596;22.520;2022-11-04T01:01:38;1.90;1.00
20400;DHT22;10359;53.596;22.520;2022-11-04T01:04:28;1.90;1.00
20400;DHT22;10359;53.596;22.520;2022-11-04T01:07:18;1.90;1.00
20400;DHT22;10359;53.596;22.520;2022-11-04T01:10:08;1.80;1.00
20400;DHT22;10359;53.596;22.520;2022-11-04T01:13:05;1.80;1.00
20400;DHT22;10359;53.596;22.520;2022-11-04T01:15:57;1.80;1.00
20400;DHT22;10359;53.596;22.520;2022-11-04T01:18:49;1.80;1.00
20400;DHT22;10359;53.596;22.520;2022-11-04T01:21:39;1.80;1.00
20400;DHT22;10359;53.596;22.520;2022-11-04T01:24:28;1.70;1.00
20400;DHT22;10359;53.596;22.520;2022-11-04T01:27:17;1.70;1.00
20400;DHT22;10359;53.596;22.520;2022-11-04T01:30:10;1.70;1.00
20400;DHT22;10359;53.596;22.520;2022-11-04T01:32:59;1.60;1.00
20400;DHT22;10359;53.596;22.520;2022-11-04T01:35:49;1.60;1.00
20400;DHT22;10359;53.596;22.520;2022-11-04T01:38:45;1.70;1.00
20400;DHT22;10359;53.596;22.520;2022-11-04T01:41:35;1.70;1.00
20400;DHT22;10359;53.596;22.520;2022-11-04T01:44:49;1.70;1.00
20400;DHT22;10359;53.596;22.520;2022-11-04T01:47:42;1.80;1.00
20400;DHT22;10359;53.596;22.520;2022-11-04T01:50:34;1.80;1.00
20400;DHT22;10359;53.596;22.520;2022-11-04T01:53:26;1.80;1.00
20400;DHT22;10359;53.596;22.520;2022-11-04T01:56:17;1.80;1.00
20400;DHT22;10359;53.596;22.520;2022-11-04T01:59:10;1.90;1.00
20400;DHT22;10359;53.596;22.520;2022-11-04T02:02:01;1.90;1.00
20400;DHT22;10359;53.596;22.520;2022-11-04T02:04:52;1.90;1.00
20400;DHT22;10359;53.596;22.520;2022-11-04T02:07:42;2.00;1.00
20400;DHT22;10359;53.596;22.520;2022-11-04T02:13:19;2.00;1.00
20400;DHT22;10359;53.596;22.520;2022-11-04T02:16:15;2.00;1.00
20400;DHT22;10359;53.596;22.520;2022-11-04T02:19:28;2.00;1.00
20400;DHT22;10359;53.596;22.520;2022-11-04T02:22:42;2.10;1.00
20400;DHT22;10359;53.596;22.520;2022-11-04T02:26:33;2.10;1.00
20400;DHT22;10359;53.596;22.520;2022-11-04T02:29:41;2.10;1.00
20400;DHT22;10359;53.596;22.520;2022-11-04T02:32:53;2.00;1.00
20400;DHT22;10359;53.596;22.520;2022-11-04T02:35:56;2.10;1.00
20400;DHT22;10359;53.596;22.520;2022-11-04T02:38:52;1.90;1.00
20400;DHT22;10359;53.596;22.520;2022-11-04T02:41:52;2.00;1.00
20400;DHT22;10359;53.596;22.520;2022-11-04T02:44:50;2.10;1.00
20400;DHT22;10359;53.596;22.520;2022-11-04T02:47:50;2.00;1.00
20400;DHT22;10359;53.596;22.520;2022-11-04T02:50:45;2.00;1.00
20400;DHT22;10359;53.596;22.520;2022-11-04T02:53:43;2.00;1.00
20400;DHT22;10359;53.596;22.520;2022-11-04T02:56:37;2.00;1.00
20400;DHT22;10359;53.596;22.520;2022-11-04T02:59:32;2.00;1.00
20400;DHT22;10359;53.596;22.520;2022-11-04T03:02:29;2.10;1.00
20400;DHT22;10359;53.596;22.520;2022-11-04T03:05:27;2.10;1.00
20400;DHT22;10359;53.596;22.520;2022-11-04T03:08:23;2.10;1.00
20400;DHT22;10359;53.596;22.520;2022-11-04T03:11:17;2.10;1.00
20400;DHT22;10359;53.596;22.520;2022-11-04T03:14:13;2.20;1.00
20400;DHT22;10359;53.596;22.520;2022-11-04T03:17:06;2.20;1.00
20400;DHT22;10359;53.596;22.520;2022-11-04T03:20:01;2.30;1.00
20400;DHT22;10359;53.596;22.520;2022-11-04T03:22:53;2.20;1.00
20400;DHT22;10359;53.596;22.520;2022-11-04T03:25:50;2.20;99.90
20400;DHT22;10359;53.596;22.520;2022-11-04T03:28:45;2.20;1.00
20400;DHT22;10359;53.596;22.520;2022-11-04T03:31:42;2.20;1.00
20400;DHT22;10359;53.596;22.520;2022-11-04T03:34:34;2.30;1.00
20400;DHT22;10359;53.596;22.520;2022-11-04T03:37:27;2.20;1.00
20400;DHT22;10359;53.596;22.520;2022-11-04T03:40:18;2.20;1.00
20400;DHT22;10359;53.596;22.520;2022-11-04T03:43:11;2.20;1.00
20400;DHT22;10359;53.596;22.520;2022-11-04T03:46:03;2.20;1.00
20400;DHT22;10359;53.596;22.520;2022-11-04T03:48:54;2.20;1.00
20400;DHT22;10359;53.596;22.520;2022-11-04T03:51:46;2.10;1.00
20400;DHT22;10359;53.596;22.520;2022-11-04T03:54:38;2.10;1.00
20400;DHT22;10359;53.596;22.520;2022-11-04T03:57:41;2.20;1.00
20400;DHT22;10359;53.596;22.520;2022-11-04T04:00:39;2.10;1.00
20400;DHT22;10359;53.596;22.520;2022-11-04T04:03:37;2.10;99.90
20400;DHT22;10359;53.596;22.520;2022-11-04T04:06:34;2.10;1.00
20400;DHT22;10359;53.596;22.520;2022-11-04T04:09:28;2.00;1.00
20400;DHT22;10359;53.596;22.520;2022-11-04T04:12:28;2.10;1.00
20400;DHT22;10359;53.596;22.520;2022-11-04T04:15:26;2.10;1.00
20400;DHT22;10359;53.596;22.520;2022-11-04T04:18:28;2.00;99.90
20400;DHT22;10359;53.596;22.520;2022-11-04T04:21:21;2.00;99.90
20400;DHT22;10359;53.596;22.520;2022-11-04T04:24:16;2.00;1.00
20400;DHT22;10359;53.596;22.520;2022-11-04T04:27:26;2.00;99.90
20400;DHT22;10359;53.596;22.520;2022-11-04T04:30:20;2.00;99.90
20400;DHT22;10359;53.596;22.520;2022-11-04T04:33:12;1.90;99.90
20400;DHT22;10359;53.596;22.520;2022-11-04T04:36:05;1.90;1.00
20400;DHT22;10359;53.596;22.520;2022-11-04T04:38:58;1.90;99.90
20400;DHT22;10359;53.596;22.520;2022-11-04T04:42:09;1.90;99.90
20400;DHT22;10359;53.596;22.520;2022-11-04T04:45:22;1.90;1.00
20400;DHT22;10359;53.596;22.520;2022-11-04T04:48:14;1.90;1.00
20400;DHT22;10359;53.596;22.520;2022-11-04T04:51:05;1.90;1.00
20400;DHT22;10359;53.596;22.520;2022-11-04T04:53:55;1.90;1.00
20400;DHT22;10359;53.596;22.520;2022-11-04T04:56:45;1.90;99.90
20400;DHT22;10359;53.596;22.520;2022-11-04T04:59:36;2.00;1.00
20400;DHT22;10359;53.596;22.520;2022-11-04T05:02:28;2.00;99.90
20400;DHT22;10359;53.596;22.520;2022-11-04T05:05:19;2.00;99.90
20400;DHT22;10359;53.596;22.520;2022-11-04T05:08:09;2.00;99.90
20400;DHT22;10359;53.596;22.520;2022-11-04T05:10:59;1.90;99.90
20400;DHT22;10359;53.596;22.520;2022-11-04T05:13:49;2.00;99.90
20400;DHT22;10359;53.596;22.520;2022-11-04T05:16:39;1.90;99.90
20400;DHT22;10359;53.596;22.520;2022-11-04T05:19:31;2.00;99.90
20400;DHT22;10359;53.596;22.520;2022-11-04T05:22:21;2.10;99.90
20400;DHT22;10359;53.596;22.520;2022-11-04T05:25:10;2.10;99.90
20400;DHT22;10359;53.596;22.520;2022-11-04T05:28:01;2.10;99.90
20400;DHT22;10359;53.596;22.520;2022-11-04T05:30:50;2.10;99.90
20400;DHT22;10359;53.596;22.520;2022-11-04T05:33:40;2.00;99.90
20400;DHT22;10359;53.596;22.520;2022-11-04T05:36:32;2.00;99.90
20400;DHT22;10359;53.596;22.520;2022-11-04T05:39:22;2.00;99.90
20400;DHT22;10359;53.596;22.520;2022-11-04T05:42:12;1.90;99.90
20400;DHT22;10359;53.596;22.520;2022-11-04T05:45:02;2.00;99.90
20400;DHT22;10359;53.596;22.520;2022-11-04T05:47:57;2.10;99.90
20400;DHT22;10359;53.596;22.520;2022-11-04T05:50:47;2.10;99.90
20400;DHT22;10359;53.596;22.520;2022-11-04T05:53:39;2.10;99.90
20400;DHT22;10359;53.596;22.520;2022-11-04T05:56:30;2.10;99.90
20400;DHT22;10359;53.596;22.520;2022-11-04T05:59:19;2.20;99.90
20400;DHT22;10359;53.596;22.520;2022-11-04T06:02:10;2.30;99.90
20400;DHT22;10359;53.596;22.520;2022-11-04T06:05:00;2.30;99.90
20400;DHT22;10359;53.596;22.520;2022-11-04T06:07:50;2.30;99.90
20400;DHT22;10359;53.596;22.520;2022-11-04T06:10:44;2.40;99.90
20400;DHT22;10359;53.596;22.520;2022-11-04T06:13:34;2.60;99.90
20400;DHT22;10359;53.596;22.520;2022-11-04T06:16:24;2.60;99.90
20400;DHT22;10359;53.596;22.520;2022-11-04T06:19:15;2.70;99.90
20400;DHT22;10359;53.596;22.520;2022-11-04T06:22:05;2.70;99.90
20400;DHT22;10359;53.596;22.520;2022-11-04T06:24:55;2.70;99.90
20400;DHT22;10359;53.596;22.520;2022-11-04T06:27:46;2.70;99.90
20400;DHT22;10359;53.596;22.520;2022-11-04T06:30:37;2.80;99.90
20400;DHT22;10359;53.596;22.520;2022-11-04T06:33:28;2.90;99.90
20400;DHT22;10359;53.596;22.520;2022-11-04T06:36:23;2.90;99.90
20400;DHT22;10359;53.596;22.520;2022-11-04T06:39:13;3.00;99.90
20400;DHT22;10359;53.596;22.520;2022-11-04T06:42:04;3.10;99.90
20400;DHT22;10359;53.596;22.520;2022-11-04T06:44:55;3.30;99.90
20400;DHT22;10359;53.596;22.520;2022-11-04T06:47:45;3.30;99.90
20400;DHT22;10359;53.596;22.520;2022-11-04T06:50:36;3.40;99.90
20400;DHT22;10359;53.596;22.520;2022-11-04T06:53:26;3.40;99.90
20400;DHT22;10359;53.596;22.520;2022-11-04T06:56:16;3.50;99.90
20400;DHT22;10359;53.596;22.520;2022-11-04T06:59:08;3.60;99.90
20400;DHT22;10359;53.596;22.520;2022-11-04T07:02:00;3.60;99.90
20400;DHT22;10359;53.596;22.520;2022-11-04T07:04:50;3.70;99.90
20400;DHT22;10359;53.596;22.520;2022-11-04T07:07:41;3.80;99.90
20400;DHT22;10359;53.596;22.520;2022-11-04T07:10:31;3.90;99.90
20400;DHT22;10359;53.596;22.520;2022-11-04T07:13:21;3.90;99.90
20400;DHT22;10359;53.596;22.520;2022-11-04T07:16:12;4.00;99.90
20400;DHT22;10359;53.596;22.520;2022-11-04T07:19:04;3.90;99.90
20400;DHT22;10359;53.596;22.520;2022-11-04T07:21:55;3.90;99.90
20400;DHT22;10359;53.596;22.520;2022-11-04T07:24:47;3.90;99.90
20400;DHT22;10359;53.596;22.520;2022-11-04T07:27:37;4.00;99.90
20400;DHT22;10359;53.596;22.520;2022-11-04T07:30:28;4.00;99.90
20400;DHT22;10359;53.596;22.520;2022-11-04T07:33:18;4.00;99.90
20400;DHT22;10359;53.596;22.520;2022-11-04T07:36:11;4.00;99.90
20400;DHT22;10359;53.596;22.520;2022-11-04T07:39:02;4.00;99.90
20400;DHT22;10359;53.596;22.520;2022-11-04T07:41:53;4.10;99.90
20400;DHT22;10359;53.596;22.520;2022-11-04T07:44:46;4.20;99.90
20400;DHT22;10359;53.596;22.520;2022-11-04T07:47:36;4.20;99.90
20400;DHT22;10359;53.596;22.520;2022-11-04T07:50:27;4.30;99.90
20400;DHT22;10359;53.596;22.520;2022-11-04T07:53:19;4.30;99.90
20400;DHT22;10359;53.596;22.520;2022-11-04T07:56:10;4.40;99.90
20400;DHT22;10359;53.596;22.520;2022-11-04T07:59:00;4.50;99.90
20400;DHT22;10359;53.596;22.520;2022-11-04T08:01:50;4.50;99.90
20400;DHT22;10359;53.596;22.520;2022-11-04T08:04:40;4.70;99.90
20400;DHT22;10359;53.596;22.520;2022-11-04T08:07:31;4.80;99.90
20400;DHT22;10359;53.596;22.520;2022-11-04T08:10:24;4.80;99.90
20400;DHT22;10359;53.596;22.520;2022-11-04T08:13:15;5.00;99.90
20400;DHT22;10359;53.596;22.520;2022-11-04T08:16:06;5.20;99.90
20400;DHT22;10359;53.596;22.520;2022-11-04T08:18:59;5.30;99.90
20400;DHT22;10359;53.596;22.520;2022-11-04T08:21:50;5.40;99.90
20400;DHT22;10359;53.596;22.520;2022-11-04T08:24:41;5.50;99.90
20400;DHT22;10359;53.596;22.520;2022-11-04T08:27:33;5.70;99.90
20400;DHT22;10359;53.596;22.520;2022-11-04T08:30:24;5.80;99.90
20400;DHT22;10359;53.596;22.520;2022-11-04T08:33:13;6.00;99.90
20400;DHT22;10359;53.596;22.520;2022-11-04T08:36:06;6.10;99.90
20400;DHT22;10359;53.596;22.520;2022-11-04T08:38:56;6.30;99.90
20400;DHT22;10359;53.596;22.520;2022-11-04T08:41:55;6.50;99.90
20400;DHT22;10359;53.596;22.520;2022-11-04T08:44:49;6.60;99.90
20400;DHT22;10359;53.596;22.520;2022-11-04T08:47:39;6.80;99.90
20400;DHT22;10359;53.596;22.520;2022-11-04T08:50:30;7.00;99.90
20400;DHT22;10359;53.596;22.520;2022-11-04T08:53:19;7.20;99.90
20400;DHT22;10359;53.596;22.520;2022-11-04T08:56:11;7.40;99.90
20400;DHT22;10359;53.596;22.520;2022-11-04T08:59:02;7.60;99.90
20400;DHT22;10359;53.596;22.520;2022-11-04T09:01:55;7.80;99.90
20400;DHT22;10359;53.596;22.520;2022-11-04T09:04:46;7.90;99.90
20400;DHT22;10359;53.596;22.520;2022-11-04T09:07:36;8.00;99.90
20400;DHT22;10359;53.596;22.520;2022-11-04T09:10:26;8.20;99.90
20400;DHT22;10359;53.596;22.520;2022-11-04T09:13:16;8.50;99.90
20400;DHT22;10359;53.596;22.520;2022-11-04T09:16:07;8.60;99.90
20400;DHT22;10359;53.596;22.520;2022-11-04T09:19:00;8.80;99.90
20400;DHT22;10359;53.596;22.520;2022-11-04T09:21:51;9.00;99.90
20400;DHT22;10359;53.596;22.520;2022-11-04T09:24:41;9.10;99.90
20400;DHT22;10359;53.596;22.520;2022-11-04T09:27:33;9.30;99.90
20400;DHT22;10359;53.596;22.520;2022-11-04T09:30:32;9.20;99.90
20400;DHT22;10359;53.596;22.520;2022-11-04T09:33:30;9.20;99.90
20400;DHT22;10359;53.596;22.520;2022-11-04T09:36:35;9.30;99.90
20400;DHT22;10359;53.596;22.520;2022-11-04T09:39:30;9.30;99.90
20400;DHT22;10359;53.596;22.520;2022-11-04T09:42:33;9.20;99.90
20400;DHT22;10359;53.596;22.520;2022-11-04T09:45:27;9.30;99.90
20400;DHT22;10359;53.596;22.520;2022-11-04T09:48:24;9.30;99.90
20400;DHT22;10359;53.596;22.520;2022-11-04T09:51:16;9.30;99.90
20400;DHT22;10359;53.596;22.520;2022-11-04T09:54:33;9.30;99.90
20400;DHT22;10359;53.596;22.520;2022-11-04T09:57:33;9.40;99.90
20400;DHT22;10359;53.596;22.520;2022-11-04T10:00:24;9.50;99.90
20400;DHT22;10359;53.596;22.520;2022-11-04T10:03:23;9.50;99.90
20400;DHT22;10359;53.596;22.520;2022-11-04T10:06:30;9.60;99.90
20400;DHT22;10359;53.596;22.520;2022-11-04T10:09:33;9.70;99.90
20400;DHT22;10359;53.596;22.520;2022-11-04T10:12:41;9.90;99.90
20400;DHT22;10359;53.596;22.520;2022-11-04T10:15:46;9.80;99.90
20400;DHT22;10359;53.596;22.520;2022-11-04T10:18:58;9.80;99.90
20400;DHT22;10359;53.596;22.520;2022-11-04T10:22:01;9.80;99.90
20400;DHT22;10359;53.596;22.520;2022-11-04T10:25:01;9.80;99.90
20400;DHT22;10359;53.596;22.520;2022-11-04T10:27:52;9.80;99.90
20400;DHT22;10359;53.596;22.520;2022-11-04T10:30:43;9.70;99.90
20400;DHT22;10359;53.596;22.520;2022-11-04T10:33:38;9.80;99.90
20400;DHT22;10359;53.596;22.520;2022-11-04T10:36:32;9.90;99.90
20400;DHT22;10359;53.596;22.520;2022-11-04T10:39:29;9.80;99.90
20400;DHT22;10359;53.596;22.520;2022-11-04T10:42:22;9.90;99.90
20400;DHT22;10359;53.596;22.520;2022-11-04T10:45:13;9.90;99.90
20400;DHT22;10359;53.596;22.520;2022-11-04T10:48:07;9.80;99.90
20400;DHT22;10359;53.596;22.520;2022-11-04T10:51:00;9.80;99.90
20400;DHT22;10359;53.596;22.520;2022-11-04T10:53:53;9.80;99.90
20400;DHT22;10359;53.596;22.520;2022-11-04T10:56:48;9.80;99.90
20400;DHT22;10359;53.596;22.520;2022-11-04T10:59:50;9.90;99.90
20400;DHT22;10359;53.596;22.520;2022-11-04T11:02:46;10.00;99.90
20400;DHT22;10359;53.596;22.520;2022-11-04T11:05:36;9.90;99.90
20400;DHT22;10359;53.596;22.520;2022-11-04T11:08:28;9.90;99.90
20400;DHT22;10359;53.596;22.520;2022-11-04T11:11:39;9.90;99.90
20400;DHT22;10359;53.596;22.520;2022-11-04T11:14:35;9.80;99.90
20400;DHT22;10359;53.596;22.520;2022-11-04T11:17:37;9.60;99.90
20400;DHT22;10359;53.596;22.520;2022-11-04T11:20:29;9.60;99.90
20400;DHT22;10359;53.596;22.520;2022-11-04T11:23:43;9.60;99.90
20400;DHT22;10359;53.596;22.520;2022-11-04T11:26:34;9.60;99.90
20400;DHT22;10359;53.596;22.520;2022-11-04T11:29:26;9.60;99.90
20400;DHT22;10359;53.596;22.520;2022-11-04T11:32:24;9.50;99.90
20400;DHT22;10359;53.596;22.520;2022-11-04T11:35:21;9.50;99.90
20400;DHT22;10359;53.596;22.520;2022-11-04T11:38:20;9.60;99.90
20400;DHT22;10359;53.596;22.520;2022-11-04T11:41:13;9.50;99.90
20400;DHT22;10359;53.596;22.520;2022-11-04T11:44:21;9.60;99.90
20400;DHT22;10359;53.596;22.520;2022-11-04T11:47:19;9.60;99.90
20400;DHT22;10359;53.596;22.520;2022-11-04T11:50:16;9.50;99.90
20400;DHT22;10359;53.596;22.520;2022-11-04T11:53:15;9.50;99.90
20400;DHT22;10359;53.596;22.520;2022-11-04T11:56:17;9.50;99.90
20400;DHT22;10359;53.596;22.520;2022-11-04T11:59:24;9.50;99.90
20400;DHT22;10359;53.596;22.520;2022-11-04T12:02:43;9.60;99.90
20400;DHT22;10359;53.596;22.520;2022-11-04T12:05:40;9.60;99.90
20400;DHT22;10359;53.596;22.520;2022-11-04T12:09:19;9.60;99.90
20400;DHT22;10359;53.596;22.520;2022-11-04T12:12:34;9.60;99.90
20400;DHT22;10359;53.596;22.520;2022-11-04T12:15:38;9.60;99.90
20400;DHT22;10359;53.596;22.520;2022-11-04T12:19:03;9.60;99.90
20400;DHT22;10359;53.596;22.520;2022-11-04T12:22:00;9.60;99.90
20400;DHT22;10359;53.596;22.520;2022-11-04T12:25:02;9.60;99.90
20400;DHT22;10359;53.596;22.520;2022-11-04T12:28:00;9.50;99.90
20400;DHT22;10359;53.596;22.520;2022-11-04T12:31:01;9.50;99.90
20400;DHT22;10359;53.596;22.520;2022-11-04T12:33:58;9.50;99.90
20400;DHT22;10359;53.596;22.520;2022-11-04T12:37:00;9.50;99.90
20400;DHT22;10359;53.596;22.520;2022-11-04T12:40:11;9.50;99.90
20400;DHT22;10359;53.596;22.520;2022-11-04T12:43:19;9.50;99.90
20400;DHT22;10359;53.596;22.520;2022-11-04T12:46:17;9.40;99.90
20400;DHT22;10359;53.596;22.520;2022-11-04T12:49:32;9.40;99.90
20400;DHT22;10359;53.596;22.520;2022-11-04T12:52:40;9.40;99.90
20400;DHT22;10359;53.596;22.520;2022-11-04T12:55:41;9.40;99.90
20400;DHT22;10359;53.596;22.520;2022-11-04T12:58:44;9.30;99.90
20400;DHT22;10359;53.596;22.520;2022-11-04T13:01:39;9.30;99.90
20400;DHT22;10359;53.596;22.520;2022-11-04T13:04:37;9.30;99.90
20400;DHT22;10359;53.596;22.520;2022-11-04T13:07:32;9.20;99.90
20400;DHT22;10359;53.596;22.520;2022-11-04T13:10:26;9.20;99.90
20400;DHT22;10359;53.596;22.520;2022-11-04T13:13:23;9.20;99.90
20400;DHT22;10359;53.596;22.520;2022-11-04T13:16:14;9.20;99.90
20400;DHT22;10359;53.596;22.520;2022-11-04T13:19:05;9.20;99.90
20400;DHT22;10359;53.596;22.520;2022-11-04T13:22:04;9.20;99.90
20400;DHT22;10359;53.596;22.520;2022-11-04T13:24:59;9.10;99.90
20400;DHT22;10359;53.596;22.520;2022-11-04T13:27:51;9.10;99.90
20400;DHT22;10359;53.596;22.520;2022-11-04T13:30:49;9.10;99.90
20400;DHT22;10359;53.596;22.520;2022-11-04T13:33:48;9.10;99.90
20400;DHT22;10359;53.596;22.520;2022-11-04T13:36:43;9.10;99.90
20400;DHT22;10359;53.596;22.520;2022-11-04T13:39:39;9.00;99.90
20400;DHT22;10359;53.596;22.520;2022-11-04T13:42:45;9.00;99.90
20400;DHT22;10359;53.596;22.520;2022-11-04T13:45:47;8.90;99.90
20400;DHT22;10359;53.596;22.520;2022-11-04T13:48:46;8.90;99.90
20400;DHT22;10359;53.596;22.520;2022-11-04T13:51:40;8.80;99.90
20400;DHT22;10359;53.596;22.520;2022-11-04T13:54:33;8.80;99.90
20400;DHT22;10359;53.596;22.520;2022-11-04T13:57:26;8.80;99.90
20400;DHT22;10359;53.596;22.520;2022-11-04T14:00:24;8.80;99.90
20400;DHT22;10359;53.596;22.520;2022-11-04T14:03:48;8.70;99.90
20400;DHT22;10359;53.596;22.520;2022-11-04T14:06:51;8.60;99.90
20400;DHT22;10359;53.596;22.520;2022-11-04T14:09:53;8.50;99.90
20400;DHT22;10359;53.596;22.520;2022-11-04T14:12:44;8.50;99.90
20400;DHT22;10359;53.596;22.520;2022-11-04T14:15:58;8.40;99.90
20400;DHT22;10359;53.596;22.520;2022-11-04T14:18:52;8.30;99.90
20400;DHT22;10359;53.596;22.520;2022-11-04T14:22:04;8.20;99.90
20400;DHT22;10359;53.596;22.520;2022-11-04T14:24:56;8.10;99.90
20400;DHT22;10359;53.596;22.520;2022-11-04T14:27:48;8.10;99.90
20400;DHT22;10359;53.596;22.520;2022-11-04T14:30:47;8.00;99.90
20400;DHT22;10359;53.596;22.520;2022-11-04T14:33:40;7.90;99.90
20400;DHT22;10359;53.596;22.520;2022-11-04T14:36:39;7.80;99.90
20400;DHT22;10359;53.596;22.520;2022-11-04T14:39:34;7.60;99.90
20400;DHT22;10359;53.596;22.520;2022-11-04T14:42:43;7.60;99.90
20400;DHT22;10359;53.596;22.520;2022-11-04T14:45:38;7.50;99.90
20400;DHT22;10359;53.596;22.520;2022-11-04T14:48:29;7.40;99.90
20400;DHT22;10359;53.596;22.520;2022-11-04T14:51:23;7.40;99.90
20400;DHT22;10359;53.596;22.520;2022-11-04T14:54:23;7.30;99.90
20400;DHT22;10359;53.596;22.520;2022-11-04T14:57:15;7.20;99.90
20400;DHT22;10359;53.596;22.520;2022-11-04T15:00:27;7.10;99.90
20400;DHT22;10359;53.596;22.520;2022-11-04T15:03:24;7.10;99.90
20400;DHT22;10359;53.596;22.520;2022-11-04T15:06:34;7.00;99.90
20400;DHT22;10359;53.596;22.520;2022-11-04T15:09:48;6.90;99.90
20400;DHT22;10359;53.596;22.520;2022-11-04T15:12:43;6.80;99.90
20400;DHT22;10359;53.596;22.520;2022-11-04T15:15:42;6.70;99.90
20400;DHT22;10359;53.596;22.520;2022-11-04T15:18:36;6.60;99.90
20400;DHT22;10359;53.596;22.520;2022-11-04T15:21:27;6.60;99.90
20400;DHT22;10359;53.596;22.520;2022-11-04T15:24:18;6.50;99.90
20400;DHT22;10359;53.596;22.520;2022-11-04T15:27:14;6.50;99.90
20400;DHT22;10359;53.596;22.520;2022-11-04T15:30:18;6.40;99.90
20400;DHT22;10359;53.596;22.520;2022-11-04T15:33:14;6.40;99.90
20400;DHT22;10359;53.596;22.520;2022-11-04T15:36:11;6.30;99.90
20400;DHT22;10359;53.596;22.520;2022-11-04T15:39:07;6.30;99.90
20400;DHT22;10359;53.596;22.520;2022-11-04T15:42:15;6.30;99.90
20400;DHT22;10359;53.596;22.520;2022-11-04T15:45:34;6.20;99.90
20400;DHT22;10359;53.596;22.520;2022-11-04T15:48:27;6.20;99.90
20400;DHT22;10359;53.596;22.520;2022-11-04T15:51:19;6.10;99.90
20400;DHT22;10359;53.596;22.520;2022-11-04T15:54:19;6.10;99.90
20400;DHT22;10359;53.596;22.520;2022-11-04T15:57:15;6.00;99.90
20400;DHT22;10359;53.596;22.520;2022-11-04T16:00:07;6.00;99.90
20400;DHT22;10359;53.596;22.520;2022-11-04T16:02:59;6.00;99.90
20400;DHT22;10359;53.596;22.520;2022-11-04T16:06:01;6.00;99.90
20400;DHT22;10359;53.596;22.520;2022-11-04T16:09:00;6.00;99.90
20400;DHT22;10359;53.596;22.520;2022-11-04T16:12:07;6.00;99.90
20400;DHT22;10359;53.596;22.520;2022-11-04T16:15:02;6.00;99.90
20400;DHT22;10359;53.596;22.520;2022-11-04T16:17:53;6.00;99.90
20400;DHT22;10359;53.596;22.520;2022-11-04T16:20:45;6.00;99.90
20400;DHT22;10359;53.596;22.520;2022-11-04T16:23:43;5.90;99.90
20400;DHT22;10359;53.596;22.520;2022-11-04T16:26:38;6.00;99.90
20400;DHT22;10359;53.596;22.520;2022-11-04T16:29:30;5.90;99.90
20400;DHT22;10359;53.596;22.520;2022-11-04T16:32:28;5.90;99.90
20400;DHT22;10359;53.596;22.520;2022-11-04T16:35:21;5.90;99.90
20400;DHT22;10359;53.596;22.520;2022-11-04T16:38:13;5.90;99.90
20400;DHT22;10359;53.596;22.520;2022-11-04T16:41:03;5.80;99.90
20400;DHT22;10359;53.596;22.520;2022-11-04T16:43:54;5.80;99.90
20400;DHT22;10359;53.596;22.520;2022-11-04T16:46:45;5.80;99.90
20400;DHT22;10359;53.596;22.520;2022-11-04T16:49:37;5.80;99.90
20400;DHT22;10359;53.596;22.520;2022-11-04T16:52:31;5.70;99.90
20400;DHT22;10359;53.596;22.520;2022-11-04T16:55:31;5.70;99.90
20400;DHT22;10359;53.596;22.520;2022-11-04T16:58:21;5.70;99.90
20400;DHT22;10359;53.596;22.520;2022-11-04T17:01:12;5.70;99.90
20400;DHT22;10359;53.596;22.520;2022-11-04T17:04:04;5.60;99.90
20400;DHT22;10359;53.596;22.520;2022-11-04T17:06:57;5.60;99.90
20400;DHT22;10359;53.596;22.520;2022-11-04T17:09:47;5.50;99.90
20400;DHT22;10359;53.596;22.520;2022-11-04T17:12:37;5.50;99.90
20400;DHT22;10359;53.596;22.520;2022-11-04T17:15:29;5.50;99.90
20400;DHT22;10359;53.596;22.520;2022-11-04T17:18:21;5.40;99.90
20400;DHT22;10359;53.596;22.520;2022-11-04T17:21:13;5.40;99.90
20400;DHT22;10359;53.596;22.520;2022-11-04T17:24:07;5.30;99.90
20400;DHT22;10359;53.596;22.520;2022-11-04T17:26:59;5.30;99.90
20400;DHT22;10359;53.596;22.520;2022-11-04T17:29:49;5.30;99.90
20400;DHT22;10359;53.596;22.520;2022-11-04T17:32:42;5.30;99.90
20400;DHT22;10359;53.596;22.520;2022-11-04T17:35:33;5.20;99.90
20400;DHT22;10359;53.596;22.520;2022-11-04T17:38:24;5.20;99.90
20400;DHT22;10359;53.596;22.520;2022-11-04T17:41:17;5.20;99.90
20400;DHT22;10359;53.596;22.520;2022-11-04T17:44:24;5.10;99.90
20400;DHT22;10359;53.596;22.520;2022-11-04T17:47:15;5.10;99.90
20400;DHT22;10359;53.596;22.520;2022-11-04T17:50:06;5.10;99.90
20400;DHT22;10359;53.596;22.520;2022-11-04T17:52:59;5.10;99.90
20400;DHT22;10359;53.596;22.520;2022-11-04T17:55:50;5.00;99.90
20400;DHT22;10359;53.596;22.520;2022-11-04T17:58:42;5.00;99.90
20400;DHT22;10359;53.596;22.520;2022-11-04T18:01:34;5.00;99.90
20400;DHT22;10359;53.596;22.520;2022-11-04T18:04:24;4.90;99.90
20400;DHT22;10359;53.596;22.520;2022-11-04T18:07:16;4.90;99.90
20400;DHT22;10359;53.596;22.520;2022-11-04T18:10:06;4.80;99.90
20400;DHT22;10359;53.596;22.520;2022-11-04T18:12:57;4.80;99.90
20400;DHT22;10359;53.596;22.520;2022-11-04T18:15:50;4.80;99.90
20400;DHT22;10359;53.596;22.520;2022-11-04T18:18:40;4.70;99.90
20400;DHT22;10359;53.596;22.520;2022-11-04T18:21:30;4.70;99.90
20400;DHT22;10359;53.596;22.520;2022-11-04T18:24:06;4.60;99.90
20400;DHT22;10359;53.596;22.520;2022-11-04T18:26:37;4.60;99.90
20400;DHT22;10359;53.596;22.520;2022-11-04T18:29:08;4.60;99.90
20400;DHT22;10359;53.596;22.520;2022-11-04T18:31:40;4.60;99.90
20400;DHT22;10359;53.596;22.520;2022-11-04T18:34:17;4.50;99.90